Capitol Logistics 1147


ENGM
Oslo Airport Gardermoen
Oslo, NO
EBLG
Liège Airport
Liege, BE

Activity Log

Date Flight Route Aircraft Duration
01/09/2020 CPX1147 ENGM VIPA1D VIPPA P615 ARTOR LANUL OMORU Z310 WOODY N872 NIK NIK5D EBLG B738 1h 52m
10/21/2019 CPX748 Not Available B738 2h 00m
09/29/2019 CPX748 N0456F380 VEMI9D TOR Z705 AMADA UZ705 PAM/N0454F370 UN872 NIK NIK5D B738 2h 04m

Route Details

Aircraft Information
Primary: Boeing 737-800BCF
Backup: Not Available
Route Data
Distance: 606nm
Sched. Duration: 1h 55m
Avg. Duration: 1h 85m (+31m)
Times Flown: 3
Recm'd Route: Not Available
Planned Altitude: 36,000ft
Origin Wx: ENGM 260620Z 00000KT 9000 1200SW R19R/P2000N R01R/P2000N R19L/P2000N R01L/1500D -RA BCFG OVC002 06/06 Q0996 TEMPO 2000 SHRA BR SCT002 BKN020CB
Dest. Wx: EBLG 260620Z 20013KT 9999 FEW026 09/06 Q1002 NOSIG
Notes:

Financial History
Total Freight: 123,024lbs
Average Load: 41,008lbs/flt
Fuel Used: 33,103lbs
Avg. Fuel Used: 11,034lbs/flt
Fuel Expense: $26,482
Avg. Fuel Expense: $8,827
Avg. Fuel Cost: $0.80/lbs
Total Gross Income: $280,759
Pilot Pay: $687
Total Expenses: $30,478
Total Revenue: $222,416
Average Revenue: $93,586.24